createdAt,value
2023-11-06T00:00:00.968Z,13.07
2023-11-06T00:02:30.821Z,13.13
2023-11-06T00:05:08.780Z,13.00
2023-11-06T00:07:40.931Z,13.01
2023-11-06T00:10:12.847Z,12.92
2023-11-06T00:12:41.929Z,13.16
2023-11-06T00:15:25.724Z,13.08
2023-11-06T00:17:56.881Z,13.12
2023-11-06T00:20:25.802Z,13.02
2023-11-06T00:23:03.035Z,12.89
2023-11-06T00:25:49.223Z,12.88
2023-11-06T00:28:27.491Z,13.07
2023-11-06T00:31:02.751Z,12.93
2023-11-06T00:33:31.740Z,12.86
2023-11-06T00:36:02.613Z,12.78
2023-11-06T00:38:39.223Z,12.86
2023-11-06T00:41:10.102Z,12.78
2023-11-06T00:43:39.800Z,12.92
2023-11-06T00:46:11.766Z,12.96
2023-11-06T00:48:46.355Z,12.84
2023-11-06T00:51:25.283Z,12.81
2023-11-06T00:54:09.038Z,12.69
2023-11-06T00:56:45.608Z,12.84
2023-11-06T00:59:20.089Z,12.72
2023-11-06T01:01:51.246Z,12.62
2023-11-06T01:04:20.499Z,12.59
2023-11-06T01:06:50.779Z,12.80
2023-11-06T01:09:18.994Z,12.61
2023-11-06T01:11:52.597Z,12.64
2023-11-06T01:14:31.019Z,12.64
2023-11-06T01:17:08.853Z,12.89
2023-11-06T01:19:39.595Z,12.65
2023-11-06T01:22:16.099Z,12.58
2023-11-06T01:24:47.054Z,12.58
2023-11-06T01:27:20.155Z,12.67
2023-11-06T01:29:52.346Z,12.75
2023-11-06T01:32:24.604Z,12.55
2023-11-06T01:34:52.977Z,12.60
2023-11-06T01:37:27.753Z,12.55
2023-11-06T01:39:59.485Z,12.51
2023-11-06T01:42:31.879Z,12.50
2023-11-06T01:45:03.860Z,12.56
2023-11-06T01:47:38.090Z,12.55
2023-11-06T01:50:12.798Z,12.62
2023-11-06T01:52:50.256Z,12.39
2023-11-06T01:55:23.420Z,12.47
2023-11-06T01:57:53.176Z,12.35
2023-11-06T02:00:25.247Z,12.42
2023-11-06T02:02:59.437Z,12.44
2023-11-06T02:05:29.449Z,12.37
2023-11-06T02:08:01.329Z,12.36
2023-11-06T02:10:34.661Z,12.49
2023-11-06T02:13:07.921Z,12.44
2023-11-06T02:15:38.222Z,12.40
2023-11-06T02:18:16.125Z,12.35
2023-11-06T02:20:45.128Z,12.42
2023-11-06T02:23:31.243Z,12.31
2023-11-06T02:25:59.857Z,12.30
2023-11-06T02:28:30.361Z,12.59
2023-11-06T02:30:59.987Z,12.22
2023-11-06T02:33:28.853Z,12.16
2023-11-06T02:35:58.015Z,12.23
2023-11-06T02:38:33.011Z,12.14
2023-11-06T02:41:02.442Z,12.30
2023-11-06T02:43:34.030Z,12.20
2023-11-06T02:46:04.399Z,12.19
2023-11-06T02:48:37.068Z,12.36
2023-11-06T02:51:08.933Z,12.25
2023-11-06T02:53:48.023Z,12.38
2023-11-06T02:56:20.628Z,12.33
2023-11-06T02:59:01.446Z,12.33
2023-11-06T03:01:40.899Z,12.12
2023-11-06T03:04:22.175Z,12.24
2023-11-06T03:06:50.856Z,12.23
2023-11-06T03:09:21.689Z,12.33
2023-11-06T03:11:50.166Z,12.23
2023-11-06T03:14:25.477Z,12.45
2023-11-06T03:16:54.011Z,12.24
2023-11-06T03:19:32.169Z,12.19
2023-11-06T03:22:06.936Z,12.38
2023-11-06T03:24:46.276Z,12.20
2023-11-06T03:27:18.930Z,12.13
2023-11-06T03:29:47.880Z,12.11
2023-11-06T03:32:20.434Z,12.23
2023-11-06T03:34:52.346Z,12.00
2023-11-06T03:37:21.505Z,12.05
2023-11-06T03:40:04.965Z,12.24
2023-11-06T03:42:34.585Z,12.19
2023-11-06T03:45:13.005Z,12.13
2023-11-06T03:47:42.759Z,11.95
2023-11-06T03:50:12.641Z,12.00
2023-11-06T03:52:45.686Z,12.13
2023-11-06T03:55:25.651Z,12.22
2023-11-06T03:57:55.448Z,12.12
2023-11-06T04:00:27.308Z,12.18
2023-11-06T04:03:04.567Z,12.19
2023-11-06T04:05:33.258Z,12.23
2023-11-06T04:08:03.239Z,12.39
2023-11-06T04:10:35.754Z,12.27
2023-11-06T04:13:05.464Z,12.29
2023-11-06T04:15:34.167Z,12.19
2023-11-06T04:18:05.283Z,12.38
2023-11-06T04:20:36.682Z,12.18
2023-11-06T04:23:07.565Z,12.02
2023-11-06T04:25:42.705Z,12.38
2023-11-06T04:28:13.265Z,12.12
2023-11-06T04:30:51.342Z,12.31
2023-11-06T04:33:19.711Z,12.20
2023-11-06T04:35:50.131Z,12.32
2023-11-06T04:38:19.739Z,12.41
2023-11-06T04:41:04.079Z,12.31
2023-11-06T04:43:37.455Z,12.24
2023-11-06T04:46:14.643Z,12.13
2023-11-06T04:48:46.337Z,12.07
2023-11-06T04:51:24.763Z,12.14
2023-11-06T04:53:55.023Z,12.10
2023-11-06T04:56:28.937Z,12.08
2023-11-06T04:59:06.032Z,12.08
2023-11-06T05:01:39.280Z,12.15
2023-11-06T05:04:24.662Z,12.21
2023-11-06T05:06:53.180Z,12.20
2023-11-06T05:09:26.408Z,12.12
2023-11-06T05:11:58.652Z,12.20
2023-11-06T05:14:29.253Z,12.03
2023-11-06T05:16:58.413Z,12.00
2023-11-06T05:19:31.365Z,12.09
2023-11-06T05:22:10.316Z,12.31
2023-11-06T05:24:43.895Z,12.39
2023-11-06T05:27:14.747Z,12.34
2023-11-06T05:29:54.737Z,12.34
2023-11-06T05:32:28.027Z,12.27
2023-11-06T05:35:01.646Z,12.25
2023-11-06T05:37:30.851Z,12.28
2023-11-06T05:40:05.319Z,12.11
2023-11-06T05:42:42.824Z,12.42
2023-11-06T05:45:16.287Z,12.55
2023-11-06T05:47:47.774Z,12.49
2023-11-06T05:50:27.800Z,12.48
2023-11-06T05:52:57.680Z,12.29
2023-11-06T05:55:26.366Z,12.41
2023-11-06T05:58:02.532Z,12.47
2023-11-06T06:00:39.741Z,12.58
2023-11-06T06:03:10.956Z,12.47
2023-11-06T06:05:43.477Z,12.29
2023-11-06T06:08:16.856Z,12.42
2023-11-06T06:10:48.945Z,12.30
2023-11-06T06:13:23.291Z,12.31
2023-11-06T06:15:52.689Z,12.17
2023-11-06T06:18:24.702Z,12.28
2023-11-06T06:20:56.281Z,12.41
2023-11-06T06:23:27.982Z,12.28
2023-11-06T06:25:58.736Z,12.31
2023-11-06T06:28:31.046Z,12.54
2023-11-06T06:31:03.209Z,12.46
2023-11-06T06:33:32.297Z,12.41
2023-11-06T06:36:02.521Z,12.27
2023-11-06T06:38:32.200Z,12.24
2023-11-06T06:41:03.927Z,12.21
2023-11-06T06:43:36.256Z,12.19
2023-11-06T06:46:07.194Z,12.15
2023-11-06T06:48:41.340Z,12.23
2023-11-06T06:51:10.193Z,12.21
2023-11-06T06:53:54.794Z,12.33
2023-11-06T06:56:24.566Z,12.49
2023-11-06T06:59:09.597Z,12.59
2023-11-06T07:01:40.974Z,12.81
2023-11-06T07:04:15.937Z,12.74
2023-11-06T07:06:48.976Z,12.67
2023-11-06T07:09:22.638Z,12.99
2023-11-06T07:11:55.954Z,12.93
2023-11-06T07:14:33.256Z,12.86
2023-11-06T07:17:07.725Z,13.02
2023-11-06T07:19:39.444Z,12.99
2023-11-06T07:22:08.473Z,12.95
2023-11-06T07:24:39.414Z,12.82
2023-11-06T07:27:15.471Z,12.99
2023-11-06T07:29:58.222Z,12.96
2023-11-06T07:32:27.520Z,13.21
2023-11-06T07:35:02.860Z,13.17
2023-11-06T07:37:32.064Z,13.28
2023-11-06T07:40:12.647Z,13.38
2023-11-06T07:42:45.960Z,13.44
2023-11-06T07:45:21.317Z,13.41
2023-11-06T07:47:50.848Z,13.40
2023-11-06T07:50:21.813Z,13.40
2023-11-06T07:52:57.591Z,13.57
2023-11-06T07:55:27.162Z,13.43
2023-11-06T07:58:03.118Z,13.50
2023-11-06T08:00:47.080Z,13.43
2023-11-06T08:03:19.692Z,13.72
2023-11-06T08:05:51.461Z,13.80
2023-11-06T08:08:23.400Z,13.82
2023-11-06T08:10:58.422Z,13.88
2023-11-06T08:13:27.337Z,14.00
2023-11-06T08:16:09.522Z,13.99
2023-11-06T08:18:38.542Z,13.85
2023-11-06T08:21:15.067Z,13.94
2023-11-06T08:23:45.537Z,13.94
2023-11-06T08:26:27.044Z,13.93
2023-11-06T08:29:02.527Z,13.87
2023-11-06T08:31:41.375Z,14.02
2023-11-06T08:34:13.736Z,14.07
2023-11-06T08:36:46.917Z,14.23
2023-11-06T08:39:23.073Z,14.19
2023-11-06T08:41:53.976Z,14.39
2023-11-06T08:44:22.441Z,14.42
2023-11-06T08:46:55.580Z,14.52
2023-11-06T08:49:26.615Z,14.55
2023-11-06T08:51:57.781Z,14.68
2023-11-06T08:54:26.659Z,14.78
2023-11-06T08:56:58.743Z,14.71
2023-11-06T08:59:32.039Z,14.86
2023-11-06T09:02:06.272Z,14.85
2023-11-06T09:04:47.320Z,15.02
2023-11-06T09:07:26.150Z,15.20
2023-11-06T09:09:54.788Z,15.08
2023-11-06T09:12:31.767Z,15.14
2023-11-06T09:15:05.790Z,15.26
2023-11-06T09:17:41.124Z,15.20
2023-11-06T09:20:15.271Z,15.09
2023-11-06T09:22:47.830Z,15.17
2023-11-06T09:25:18.227Z,15.36
2023-11-06T09:27:47.930Z,15.41
2023-11-06T09:30:23.971Z,15.38
2023-11-06T09:32:58.433Z,15.32
2023-11-06T09:35:29.709Z,15.39
2023-11-06T09:38:02.970Z,15.21
2023-11-06T09:40:34.148Z,15.17
2023-11-06T09:43:03.922Z,15.15
2023-11-06T09:45:35.494Z,15.14
2023-11-06T09:48:10.561Z,15.19
2023-11-06T09:50:47.073Z,15.40
2023-11-06T09:53:23.044Z,15.31
2023-11-06T09:55:54.600Z,15.50
2023-11-06T09:58:32.280Z,15.42
2023-11-06T10:01:05.052Z,15.47
2023-11-06T10:03:49.691Z,15.35
2023-11-06T10:06:37.531Z,15.25
2023-11-06T10:09:25.136Z,15.19
2023-11-06T10:12:00.131Z,15.31
2023-11-06T10:14:40.591Z,15.22
2023-11-06T10:17:13.297Z,15.33
2023-11-06T10:19:52.537Z,15.34
2023-11-06T10:22:24.599Z,15.50
2023-11-06T10:24:54.800Z,15.36
2023-11-06T10:27:23.947Z,15.39
2023-11-06T10:30:08.185Z,15.62
2023-11-06T10:32:42.379Z,15.66
2023-11-06T10:35:21.010Z,15.72
2023-11-06T10:37:52.530Z,15.98
2023-11-06T10:40:32.827Z,15.94
2023-11-06T10:43:07.873Z,16.06
2023-11-06T10:45:40.297Z,16.16
2023-11-06T10:48:20.044Z,16.18
2023-11-06T10:50:59.222Z,16.07
2023-11-06T10:53:33.437Z,15.98
2023-11-06T10:56:14.980Z,16.02
2023-11-06T10:58:45.745Z,16.13
2023-11-06T11:01:24.037Z,15.97
2023-11-06T11:04:04.935Z,15.96
2023-11-06T11:06:38.359Z,15.87
2023-11-06T11:09:12.623Z,15.93
2023-11-06T11:11:44.417Z,16.11
2023-11-06T11:14:20.771Z,16.18
2023-11-06T11:16:54.386Z,16.04
2023-11-06T11:19:25.712Z,16.06
2023-11-06T11:22:10.563Z,16.04
2023-11-06T11:25:00.421Z,16.05
2023-11-06T11:27:30.500Z,16.01
2023-11-06T11:30:28.373Z,16.21
2023-11-06T11:32:59.800Z,16.09
2023-11-06T11:36:05.981Z,16.13
2023-11-06T11:38:43.380Z,16.32
2023-11-06T11:41:25.816Z,16.42
2023-11-06T11:44:26.168Z,16.45
2023-11-06T11:47:11.229Z,16.34
2023-11-06T11:49:59.760Z,16.39
2023-11-06T11:52:49.206Z,16.38
2023-11-06T11:55:36.312Z,16.44
2023-11-06T11:58:08.210Z,16.54
2023-11-06T12:00:41.354Z,16.37
2023-11-06T12:03:22.268Z,16.44
2023-11-06T12:06:01.085Z,16.37
2023-11-06T12:08:30.976Z,16.24
2023-11-06T12:11:15.503Z,16.32
2023-11-06T12:13:47.622Z,16.29
2023-11-06T12:16:16.974Z,16.17
2023-11-06T12:18:48.111Z,16.20
2023-11-06T12:21:20.454Z,16.26
2023-11-06T12:23:57.115Z,16.22
2023-11-06T12:26:32.182Z,16.19
2023-11-06T12:29:17.303Z,16.34
2023-11-06T12:31:49.533Z,16.33
2023-11-06T12:34:29.668Z,16.16
2023-11-06T12:37:07.943Z,16.16
2023-11-06T12:39:40.967Z,16.18
2023-11-06T12:42:24.260Z,16.18
2023-11-06T12:44:55.916Z,16.16
2023-11-06T12:47:42.408Z,16.34
2023-11-06T12:50:13.492Z,16.24
2023-11-06T12:52:47.842Z,16.30
2023-11-06T12:55:18.245Z,16.24
2023-11-06T12:57:51.841Z,16.15
2023-11-06T13:00:30.925Z,16.13
2023-11-06T13:03:07.599Z,16.22
2023-11-06T13:05:41.339Z,16.28
2023-11-06T13:08:21.049Z,16.27
2023-11-06T13:10:51.580Z,16.37
2023-11-06T13:13:28.015Z,16.43
2023-11-06T13:16:01.536Z,16.22
2023-11-06T13:18:35.453Z,16.22
2023-11-06T13:21:20.526Z,16.28
2023-11-06T13:23:52.742Z,16.27
2023-11-06T13:26:29.285Z,16.33
2023-11-06T13:29:03.424Z,16.17
2023-11-06T13:31:35.293Z,16.49
2023-11-06T13:34:06.188Z,16.28
2023-11-06T13:36:42.590Z,16.26
2023-11-06T13:39:22.325Z,16.37
2023-11-06T13:42:05.969Z,16.45
2023-11-06T13:44:41.010Z,16.29
2023-11-06T13:47:11.164Z,16.28
2023-11-06T13:49:42.459Z,16.32
2023-11-06T13:52:25.372Z,16.18
2023-11-06T13:54:58.685Z,16.15
2023-11-06T13:57:27.316Z,16.22
2023-11-06T13:59:59.695Z,16.18
2023-11-06T14:02:34.365Z,16.31
2023-11-06T14:05:08.172Z,16.11
2023-11-06T14:07:38.485Z,16.08
2023-11-06T14:10:32.001Z,16.23
2023-11-06T14:13:18.809Z,16.13
2023-11-06T14:15:54.974Z,16.24
2023-11-06T14:18:25.943Z,16.33
2023-11-06T14:20:56.440Z,16.31
2023-11-06T14:23:38.210Z,16.26
2023-11-06T14:26:15.808Z,16.25
2023-11-06T14:28:49.398Z,16.12
2023-11-06T14:31:24.410Z,16.07
2023-11-06T14:34:04.604Z,16.21
2023-11-06T14:36:39.863Z,16.20
2023-11-06T14:39:15.672Z,16.15
2023-11-06T14:42:00.838Z,16.13
2023-11-06T14:44:30.197Z,15.97
2023-11-06T14:47:02.323Z,15.92
2023-11-06T14:49:38.366Z,16.15
2023-11-06T14:52:11.275Z,15.97
2023-11-06T14:54:42.373Z,15.73
2023-11-06T14:57:19.794Z,15.75
2023-11-06T14:59:56.959Z,15.90
2023-11-06T15:02:29.013Z,15.96
2023-11-06T15:05:03.913Z,15.72
2023-11-06T15:07:35.400Z,15.78
2023-11-06T15:10:05.785Z,15.65
2023-11-06T15:12:40.901Z,15.62
2023-11-06T15:15:17.495Z,15.46
2023-11-06T15:17:52.965Z,15.47
2023-11-06T15:20:35.209Z,15.48
2023-11-06T15:23:07.261Z,15.34
2023-11-06T15:25:41.595Z,15.35
2023-11-06T15:28:11.475Z,15.39
2023-11-06T15:30:42.866Z,15.22
2023-11-06T15:33:21.407Z,15.29
2023-11-06T15:35:53.782Z,15.23
2023-11-06T15:38:28.397Z,15.05
2023-11-06T15:41:03.600Z,14.91
2023-11-06T15:43:41.581Z,14.88
2023-11-06T15:46:20.646Z,14.95
2023-11-06T15:49:09.500Z,14.93
2023-11-06T15:51:38.020Z,15.06
2023-11-06T15:54:18.948Z,15.02
2023-11-06T15:56:50.958Z,14.89
2023-11-06T15:59:35.370Z,14.79
2023-11-06T16:02:07.200Z,14.97
2023-11-06T16:04:48.221Z,14.80
2023-11-06T16:07:29.430Z,14.94
2023-11-06T16:10:02.632Z,14.66
2023-11-06T16:12:34.853Z,14.63
2023-11-06T16:15:07.039Z,14.57
2023-11-06T16:17:38.284Z,14.48
2023-11-06T16:20:12.576Z,14.55
2023-11-06T16:22:45.753Z,14.47
2023-11-06T16:25:17.190Z,14.45
2023-11-06T16:27:50.716Z,14.42
2023-11-06T16:30:22.949Z,14.41
2023-11-06T16:32:58.440Z,14.21
2023-11-06T16:35:32.908Z,14.32
2023-11-06T16:38:13.690Z,14.20
2023-11-06T16:40:46.876Z,14.26
2023-11-06T16:43:24.367Z,14.33
2023-11-06T16:46:01.445Z,14.24
2023-11-06T16:48:32.583Z,14.13
2023-11-06T16:51:07.405Z,14.07
2023-11-06T16:53:43.871Z,14.15
2023-11-06T16:56:22.284Z,14.09
2023-11-06T16:59:01.350Z,14.02
2023-11-06T17:01:36.053Z,13.94
2023-11-06T17:04:11.361Z,13.83
2023-11-06T17:06:44.909Z,13.69
2023-11-06T17:09:25.642Z,13.68
2023-11-06T17:12:00.016Z,13.68
2023-11-06T17:14:36.438Z,13.50
2023-11-06T17:17:08.061Z,13.54
2023-11-06T17:19:43.277Z,13.39
2023-11-06T17:22:30.319Z,13.45
2023-11-06T17:25:04.812Z,13.50
2023-11-06T17:27:42.504Z,13.32
2023-11-06T17:30:16.640Z,13.39
2023-11-06T17:32:47.115Z,13.30
2023-11-06T17:35:22.696Z,13.39
2023-11-06T17:38:19.289Z,13.39
2023-11-06T17:40:57.720Z,13.26
2023-11-06T17:43:39.617Z,13.26
2023-11-06T17:46:14.373Z,13.16
2023-11-06T17:48:58.370Z,13.10
2023-11-06T17:51:37.649Z,13.12
2023-11-06T17:54:12.227Z,13.00
2023-11-06T17:56:44.013Z,13.06
2023-11-06T17:59:29.054Z,13.08
2023-11-06T18:02:05.508Z,13.07
2023-11-06T18:04:44.939Z,12.99
2023-11-06T18:07:36.168Z,13.09
2023-11-06T18:10:32.195Z,13.02
2023-11-06T18:13:06.584Z,12.90
2023-11-06T18:15:44.495Z,12.95
2023-11-06T18:18:23.194Z,12.90
2023-11-06T18:20:59.444Z,12.63
2023-11-06T18:23:39.164Z,12.65
2023-11-06T18:26:34.615Z,12.41
2023-11-06T18:29:18.246Z,12.56
2023-11-06T18:31:53.334Z,12.27
2023-11-06T18:34:29.768Z,12.39
2023-11-06T18:37:05.205Z,12.24
2023-11-06T18:39:50.473Z,12.17
2023-11-06T18:42:42.090Z,12.27
2023-11-06T18:45:29.526Z,12.34
2023-11-06T18:48:09.262Z,12.16
2023-11-06T18:50:43.469Z,12.32
2023-11-06T18:56:15.715Z,12.21
2023-11-06T18:59:12.795Z,12.22
2023-11-06T19:01:58.403Z,11.96
2023-11-06T19:04:33.781Z,11.84
2023-11-06T19:07:17.463Z,12.08
2023-11-06T19:09:50.663Z,12.14
2023-11-06T19:12:23.576Z,11.89
2023-11-06T19:15:13.567Z,11.78
2023-11-06T19:17:56.945Z,11.89
2023-11-06T19:20:40.157Z,11.82
2023-11-06T19:23:19.766Z,11.64
2023-11-06T19:25:54.826Z,11.57
2023-11-06T19:28:26.849Z,11.62
2023-11-06T19:31:20.579Z,11.75
2023-11-06T19:34:10.788Z,11.75
2023-11-06T19:36:59.089Z,11.79
2023-11-06T19:39:58.882Z,11.83
2023-11-06T19:42:40.602Z,11.60
2023-11-06T19:45:29.848Z,11.54
2023-11-06T19:51:13.262Z,11.55
2023-11-06T19:54:00.385Z,11.47
2023-11-06T19:56:52.129Z,11.56
2023-11-06T19:59:46.820Z,11.57
2023-11-06T20:02:44.104Z,11.58
2023-11-06T20:05:35.733Z,11.53
2023-11-06T20:08:15.311Z,11.45
2023-11-06T20:10:51.014Z,11.41
2023-11-06T20:13:29.564Z,11.20
2023-11-06T20:16:32.624Z,11.07
2023-11-06T20:19:25.034Z,11.22
2023-11-06T20:22:16.841Z,11.28
2023-11-06T20:25:05.504Z,11.41
2023-11-06T20:27:42.995Z,11.33
2023-11-06T20:30:33.435Z,11.28
2023-11-06T20:33:11.689Z,11.31
2023-11-06T20:35:55.079Z,11.12
2023-11-06T20:39:00.488Z,11.35
2023-11-06T20:41:39.379Z,11.30
2023-11-06T20:44:16.245Z,11.20
2023-11-06T20:46:58.362Z,11.37
2023-11-06T20:49:29.814Z,11.08
2023-11-06T20:52:07.195Z,11.21
2023-11-06T20:55:02.705Z,10.99
2023-11-06T20:57:46.190Z,10.98
2023-11-06T21:00:31.562Z,11.14
2023-11-06T21:03:03.601Z,11.01
2023-11-06T21:05:39.265Z,11.11
2023-11-06T21:08:13.822Z,11.10
2023-11-06T21:10:50.987Z,11.11
2023-11-06T21:13:21.702Z,11.20
2023-11-06T21:15:53.940Z,11.03
2023-11-06T21:18:24.062Z,10.99
2023-11-06T21:21:11.202Z,10.82
2023-11-06T21:23:47.405Z,10.71
2023-11-06T21:26:25.417Z,10.53
2023-11-06T21:28:58.406Z,10.55
2023-11-06T21:31:47.058Z,10.42
2023-11-06T21:34:33.255Z,10.44
2023-11-06T21:37:07.335Z,10.38
2023-11-06T21:39:44.756Z,10.71
2023-11-06T21:42:18.431Z,10.47
2023-11-06T21:44:50.374Z,10.47
2023-11-06T21:47:22.463Z,10.30
2023-11-06T21:49:56.566Z,10.27
2023-11-06T21:52:27.773Z,10.46
2023-11-06T21:55:02.360Z,10.38
2023-11-06T21:57:36.623Z,10.15
2023-11-06T22:00:07.217Z,10.30
2023-11-06T22:02:52.377Z,10.14
2023-11-06T22:05:27.228Z,10.32
2023-11-06T22:08:00.773Z,10.24
2023-11-06T22:10:33.201Z,10.31
2023-11-06T22:13:12.926Z,10.48
2023-11-06T22:15:44.791Z,10.34
2023-11-06T22:18:15.505Z,10.36
2023-11-06T22:20:51.080Z,10.24
2023-11-06T22:23:24.144Z,10.06
2023-11-06T22:25:55.490Z,10.31
2023-11-06T22:28:36.788Z,10.46
2023-11-06T22:31:11.712Z,10.31
2023-11-06T22:33:51.597Z,10.28
2023-11-06T22:36:26.747Z,10.27
2023-11-06T22:38:58.787Z,10.33
2023-11-06T22:41:37.352Z,10.42
2023-11-06T22:44:24.437Z,10.39
2023-11-06T22:47:05.835Z,10.62
2023-11-06T22:49:36.629Z,10.59
2023-11-06T22:52:10.290Z,10.32
2023-11-06T22:54:50.625Z,10.41
2023-11-06T22:57:27.701Z,10.32
2023-11-06T23:00:06.964Z,10.27
2023-11-06T23:02:39.339Z,10.26
2023-11-06T23:05:09.997Z,10.30
2023-11-06T23:07:50.302Z,10.26
2023-11-06T23:10:19.025Z,10.31
2023-11-06T23:12:54.609Z,10.20
2023-11-06T23:15:40.722Z,10.19
2023-11-06T23:18:14.826Z,10.34
2023-11-06T23:20:49.887Z,10.21
2023-11-06T23:23:28.772Z,10.20
2023-11-06T23:26:00.709Z,10.15
2023-11-06T23:28:33.149Z,10.00
2023-11-06T23:31:09.114Z,9.65
2023-11-06T23:33:40.584Z,9.87
2023-11-06T23:36:14.342Z,9.92
2023-11-06T23:38:49.693Z,9.78
2023-11-06T23:41:36.179Z,9.73
2023-11-06T23:44:19.350Z,9.81
2023-11-06T23:46:49.969Z,9.85
2023-11-06T23:49:20.468Z,9.87
2023-11-06T23:51:49.600Z,9.83
2023-11-06T23:54:18.984Z,9.89
2023-11-06T23:56:50.907Z,9.65
2023-11-06T23:59:27.647Z,9.53
